TUI1KN LEPA-EDDF
Flight info
| Callsign | TUI1KN |
|---|---|
| Flight time | N/A |
| Altitude | 38000 |
| Route | MERO5A MEROS DCT LAPIT DCT CHELY DCT LUMAS DCT MAXIR DCT LUSOL DCT BODRU DCT OKTET DCT IRMAR DCT KINES DCT VANAS DCT MOBLO DCT UBIMA DCT SOSAL DCT KORED DCT BERSU N871 DITON DCT LADOL T163 EMPAX EMPA5B |
| Aircraft | B738/M-V/N |
Departure
| Time | 2026-05-04 17:19 |
|---|---|
| Airport | Palma de Mallorca Airport (LEPA) |
Arrival
| Time | N/A |
|---|---|
| Airport | Frankfurt Main Airport (EDDF) |
| Time | Latitude | Longitude | Altitude | Speed | Heading |
|---|---|---|---|---|---|
| 2026-05-04 16:29 | 39.54794 | 2.73340 | 37 ft | 0 kts | 266° |
| 2026-05-04 16:55 | 39.54785 | 2.73402 | 35 ft | 4 kts | 299° |
| 2026-05-04 16:56 | 39.54750 | 2.73453 | 37 ft | 4 kts | 324° |
| 2026-05-04 16:56 | 39.54713 | 2.73483 | 36 ft | 0 kts | 329° |
| 2026-05-04 17:01 | 39.54733 | 2.73471 | 36 ft | 2 kts | 344° |
| 2026-05-04 17:02 | 39.54768 | 2.73487 | 37 ft | 4 kts | 50° |
| 2026-05-04 17:02 | 39.54740 | 2.73555 | 37 ft | 5 kts | 149° |
| 2026-05-04 17:03 | 39.54706 | 2.73581 | 37 ft | 7 kts | 149° |
| 2026-05-04 17:03 | 39.54659 | 2.73628 | 37 ft | 9 kts | 116° |
| 2026-05-04 17:03 | 39.54711 | 2.73782 | 37 ft | 11 kts | 58° |
| 2026-05-04 17:04 | 39.54791 | 2.73950 | 37 ft | 11 kts | 58° |
| 2026-05-04 17:04 | 39.54906 | 2.73962 | 37 ft | 7 kts | 355° |
| 2026-05-04 17:05 | 39.54985 | 2.73999 | 35 ft | 7 kts | 336° |
| 2026-05-04 17:05 | 39.55113 | 2.73900 | 37 ft | 12 kts | 328° |
| 2026-05-04 17:06 | 39.55255 | 2.73788 | 37 ft | 12 kts | 328° |
| 2026-05-04 17:06 | 39.55323 | 2.73734 | 37 ft | 11 kts | 329° |
| 2026-05-04 17:07 | 39.55493 | 2.73600 | 36 ft | 17 kts | 328° |
| 2026-05-04 17:07 | 39.55557 | 2.73549 | 35 ft | 16 kts | 328° |
| 2026-05-04 17:07 | 39.55658 | 2.73515 | 37 ft | 11 kts | 30° |
| 2026-05-04 17:07 | 39.55701 | 2.73596 | 37 ft | 11 kts | 59° |
| 2026-05-04 17:08 | 39.55743 | 2.73688 | 37 ft | 14 kts | 59° |
| 2026-05-04 17:08 | 39.55856 | 2.73926 | 37 ft | 16 kts | 58° |
| 2026-05-04 17:08 | 39.55911 | 2.74042 | 36 ft | 15 kts | 58° |
| 2026-05-04 17:09 | 39.55964 | 2.74155 | 37 ft | 14 kts | 58° |
| 2026-05-04 17:09 | 39.56021 | 2.74254 | 37 ft | 14 kts | 34° |
| 2026-05-04 17:09 | 39.56101 | 2.74309 | 37 ft | 12 kts | 27° |
| 2026-05-04 17:10 | 39.56137 | 2.74334 | 35 ft | 0 kts | 27° |
| 2026-05-04 17:16 | 39.56166 | 2.74348 | 37 ft | 7 kts | 11° |
| 2026-05-04 17:17 | 39.56221 | 2.74328 | 37 ft | 9 kts | 330° |
| 2026-05-04 17:17 | 39.56219 | 2.74250 | 37 ft | 0 kts | 239° |
| 2026-05-04 17:18 | 39.56190 | 2.74187 | 37 ft | 33 kts | 239° |
| 2026-05-04 17:19 | 39.55418 | 2.72563 | 44 ft | 169 kts | 238° |
| 2026-05-04 17:19 | 39.54200 | 2.69834 | 1857 ft | 169 kts | 238° |
| 2026-05-04 17:20 | 39.52847 | 2.67159 | 3288 ft | 194 kts | 236° |
| 2026-05-04 17:20 | 39.50982 | 2.64366 | 4125 ft | 227 kts | 202° |
| 2026-05-04 17:20 | 39.49368 | 2.64183 | 4628 ft | 249 kts | 173° |
| 2026-05-04 17:21 | 39.46545 | 2.67086 | 6106 ft | 284 kts | 118° |
| 2026-05-04 17:21 | 39.45902 | 2.72253 | 7779 ft | 299 kts | 96° |
| 2026-05-04 17:22 | 39.45810 | 2.74966 | 8604 ft | 304 kts | 96° |
| 2026-05-04 17:22 | 39.45711 | 2.77725 | 9430 ft | 309 kts | 96° |
| 2026-05-04 17:23 | 39.45261 | 2.86581 | 10733 ft | 362 kts | 97° |
| 2026-05-04 17:23 | 39.45058 | 2.89940 | 10913 ft | 386 kts | 97° |
| 2026-05-04 17:23 | 39.44611 | 2.97067 | 11975 ft | 404 kts | 97° |
| 2026-05-04 17:24 | 39.44379 | 3.00703 | 12695 ft | 407 kts | 97° |
| 2026-05-04 17:24 | 39.43657 | 3.11772 | 14637 ft | 419 kts | 96° |
| 2026-05-04 17:25 | 39.43409 | 3.15546 | 15284 ft | 423 kts | 96° |
| 2026-05-04 17:25 | 39.43108 | 3.23196 | 16488 ft | 433 kts | 85° |
| 2026-05-04 17:26 | 39.44871 | 3.30660 | 17681 ft | 439 kts | 60° |
| 2026-05-04 17:26 | 39.49675 | 3.40929 | 19203 ft | 451 kts | 57° |
| 2026-05-04 17:27 | 39.52963 | 3.47936 | 20170 ft | 459 kts | 58° |
| 2026-05-04 17:27 | 39.56262 | 3.55101 | 21097 ft | 467 kts | 58° |
| 2026-05-04 17:28 | 39.59595 | 3.62400 | 21984 ft | 474 kts | 58° |
| 2026-05-04 17:29 | 39.64680 | 3.73572 | 23250 ft | 484 kts | 59° |
| 2026-05-04 17:29 | 39.69831 | 3.84923 | 24351 ft | 493 kts | 59° |
| 2026-05-04 17:30 | 39.75077 | 3.96524 | 25397 ft | 500 kts | 59° |
| 2026-05-04 17:31 | 39.78612 | 4.04366 | 26051 ft | 505 kts | 59° |
| 2026-05-04 17:31 | 39.84012 | 4.16232 | 26960 ft | 512 kts | 54° |
| 2026-05-04 17:32 | 39.89445 | 4.22055 | 27562 ft | 508 kts | 22° |
| 2026-05-04 17:33 | 39.99651 | 4.24909 | 28743 ft | 499 kts | 5° |
| 2026-05-04 17:33 | 40.03083 | 4.25636 | 29126 ft | 500 kts | 6° |
| 2026-05-04 17:34 | 40.13362 | 4.27978 | 30243 ft | 500 kts | 7° |
| 2026-05-04 17:34 | 40.16785 | 4.28791 | 30598 ft | 499 kts | 7° |
| 2026-05-04 17:35 | 40.27029 | 4.31230 | 31585 ft | 498 kts | 6° |
| 2026-05-04 17:35 | 40.33800 | 4.32839 | 32251 ft | 497 kts | 6° |
| 2026-05-04 17:35 | 40.37205 | 4.33649 | 32553 ft | 497 kts | 6° |
| 2026-05-04 17:36 | 40.40607 | 4.34458 | 32884 ft | 497 kts | 6° |
| 2026-05-04 17:36 | 40.44006 | 4.35269 | 33223 ft | 496 kts | 6° |
| 2026-05-04 17:36 | 40.47400 | 4.36078 | 33532 ft | 496 kts | 6° |
| 2026-05-04 17:36 | 40.50795 | 4.36889 | 33816 ft | 496 kts | 6° |
| 2026-05-04 17:37 | 40.54189 | 4.37695 | 34092 ft | 496 kts | 6° |
| 2026-05-04 17:37 | 40.57577 | 4.38497 | 34391 ft | 494 kts | 6° |
| 2026-05-04 17:37 | 40.60953 | 4.39297 | 34698 ft | 493 kts | 6° |
| 2026-05-04 17:37 | 40.64327 | 4.40097 | 34990 ft | 491 kts | 6° |
| 2026-05-04 17:38 | 40.67688 | 4.40895 | 35264 ft | 490 kts | 6° |
| 2026-05-04 17:38 | 40.71043 | 4.41693 | 35539 ft | 489 kts | 6° |
| 2026-05-04 17:38 | 40.74393 | 4.42491 | 35804 ft | 489 kts | 5° |
| 2026-05-04 17:38 | 40.77739 | 4.43288 | 36055 ft | 488 kts | 5° |
| 2026-05-04 17:39 | 40.84405 | 4.44881 | 36593 ft | 486 kts | 5° |
| 2026-05-04 17:39 | 40.87727 | 4.45675 | 36832 ft | 485 kts | 5° |
| 2026-05-04 17:39 | 40.91046 | 4.46472 | 37067 ft | 485 kts | 5° |
| 2026-05-04 17:40 | 40.94358 | 4.47277 | 37321 ft | 483 kts | 5° |
| 2026-05-04 17:40 | 40.97665 | 4.48088 | 37571 ft | 482 kts | 5° |
| 2026-05-04 17:40 | 41.00964 | 4.48898 | 37786 ft | 482 kts | 5° |
| 2026-05-04 17:40 | 41.04260 | 4.49706 | 37921 ft | 481 kts | 5° |
| 2026-05-04 17:41 | 41.10804 | 4.51307 | 37932 ft | 481 kts | 5° |
| 2026-05-04 17:41 | 41.17388 | 4.52913 | 37936 ft | 481 kts | 5° |
| 2026-05-04 17:42 | 41.23974 | 4.54523 | 37935 ft | 481 kts | 5° |
| 2026-05-04 17:42 | 41.30569 | 4.56139 | 37928 ft | 482 kts | 5° |
| 2026-05-04 17:43 | 41.37166 | 4.57760 | 37931 ft | 482 kts | 5° |